sensor_id;sensor_type;location;lat;lon;timestamp;P1;durP1;ratioP1;P2;durP2;ratioP2
54145;SDS011;65909;49.422;7.738;2023-06-14T00:01:31;5.70;;;4.30;;
54145;SDS011;65909;49.422;7.738;2023-06-14T00:03:59;5.95;;;4.80;;
54145;SDS011;65909;49.422;7.738;2023-06-14T00:06:25;6.30;;;4.22;;
54145;SDS011;65909;49.422;7.738;2023-06-14T00:08:51;6.55;;;4.53;;
54145;SDS011;65909;49.422;7.738;2023-06-14T00:11:16;5.35;;;4.10;;
54145;SDS011;65909;49.422;7.738;2023-06-14T00:13:42;7.93;;;4.68;;
54145;SDS011;65909;49.422;7.738;2023-06-14T00:16:08;6.72;;;4.75;;
54145;SDS011;65909;49.422;7.738;2023-06-14T00:18:33;7.65;;;4.80;;
54145;SDS011;65909;49.422;7.738;2023-06-14T00:20:59;5.78;;;4.72;;
54145;SDS011;65909;49.422;7.738;2023-06-14T00:23:25;9.88;;;4.82;;
54145;SDS011;65909;49.422;7.738;2023-06-14T00:25:50;6.18;;;4.40;;
54145;SDS011;65909;49.422;7.738;2023-06-14T00:28:16;5.53;;;4.35;;
54145;SDS011;65909;49.422;7.738;2023-06-14T00:30:41;6.38;;;4.18;;
54145;SDS011;65909;49.422;7.738;2023-06-14T00:33:09;7.00;;;5.10;;
54145;SDS011;65909;49.422;7.738;2023-06-14T00:35:34;5.85;;;4.85;;
54145;SDS011;65909;49.422;7.738;2023-06-14T00:37:59;7.75;;;4.75;;
54145;SDS011;65909;49.422;7.738;2023-06-14T00:40:25;8.20;;;4.68;;
54145;SDS011;65909;49.422;7.738;2023-06-14T00:42:50;5.93;;;4.93;;
54145;SDS011;65909;49.422;7.738;2023-06-14T00:45:16;5.72;;;4.57;;
54145;SDS011;65909;49.422;7.738;2023-06-14T00:47:41;5.88;;;4.80;;
54145;SDS011;65909;49.422;7.738;2023-06-14T00:50:08;7.00;;;4.88;;
54145;SDS011;65909;49.422;7.738;2023-06-14T00:52:34;5.55;;;4.13;;
54145;SDS011;65909;49.422;7.738;2023-06-14T00:54:59;9.15;;;4.90;;
54145;SDS011;65909;49.422;7.738;2023-06-14T00:57:26;7.88;;;4.65;;
54145;SDS011;65909;49.422;7.738;2023-06-14T00:59:52;7.32;;;4.55;;
54145;SDS011;65909;49.422;7.738;2023-06-14T01:02:17;5.47;;;4.25;;
54145;SDS011;65909;49.422;7.738;2023-06-14T01:04:43;6.32;;;5.20;;
54145;SDS011;65909;49.422;7.738;2023-06-14T01:10:24;7.72;;;5.28;;
54145;SDS011;65909;49.422;7.738;2023-06-14T01:13:21;8.02;;;4.65;;
54145;SDS011;65909;49.422;7.738;2023-06-14T01:15:59;6.57;;;4.68;;
54145;SDS011;65909;49.422;7.738;2023-06-14T01:18:24;6.18;;;4.43;;
54145;SDS011;65909;49.422;7.738;2023-06-14T01:20:50;5.40;;;4.72;;
54145;SDS011;65909;49.422;7.738;2023-06-14T01:23:20;6.50;;;4.53;;
54145;SDS011;65909;49.422;7.738;2023-06-14T01:25:46;8.00;;;4.80;;
54145;SDS011;65909;49.422;7.738;2023-06-14T01:28:13;4.97;;;4.13;;
54145;SDS011;65909;49.422;7.738;2023-06-14T01:30:42;6.57;;;4.82;;
54145;SDS011;65909;49.422;7.738;2023-06-14T01:33:11;7.60;;;4.63;;
54145;SDS011;65909;49.422;7.738;2023-06-14T01:35:38;5.25;;;4.47;;
54145;SDS011;65909;49.422;7.738;2023-06-14T01:38:04;5.97;;;4.65;;
54145;SDS011;65909;49.422;7.738;2023-06-14T01:40:31;7.10;;;4.93;;
54145;SDS011;65909;49.422;7.738;2023-06-14T01:42:59;6.13;;;4.80;;
54145;SDS011;65909;49.422;7.738;2023-06-14T01:45:26;5.82;;;4.53;;
54145;SDS011;65909;49.422;7.738;2023-06-14T01:47:52;5.65;;;4.18;;
54145;SDS011;65909;49.422;7.738;2023-06-14T01:50:19;5.88;;;4.53;;
54145;SDS011;65909;49.422;7.738;2023-06-14T01:52:45;4.78;;;4.20;;
54145;SDS011;65909;49.422;7.738;2023-06-14T01:55:11;9.63;;;4.80;;
54145;SDS011;65909;49.422;7.738;2023-06-14T01:57:36;6.05;;;4.13;;
54145;SDS011;65909;49.422;7.738;2023-06-14T02:00:02;6.63;;;4.60;;
54145;SDS011;65909;49.422;7.738;2023-06-14T02:02:28;7.65;;;4.78;;
54145;SDS011;65909;49.422;7.738;2023-06-14T02:04:54;4.68;;;4.10;;
54145;SDS011;65909;49.422;7.738;2023-06-14T02:07:22;5.68;;;4.50;;
54145;SDS011;65909;49.422;7.738;2023-06-14T02:09:48;7.07;;;4.70;;
54145;SDS011;65909;49.422;7.738;2023-06-14T02:12:13;6.68;;;4.00;;
54145;SDS011;65909;49.422;7.738;2023-06-14T02:14:38;7.35;;;4.65;;
54145;SDS011;65909;49.422;7.738;2023-06-14T02:17:04;5.60;;;4.15;;
54145;SDS011;65909;49.422;7.738;2023-06-14T02:19:31;5.40;;;4.30;;
54145;SDS011;65909;49.422;7.738;2023-06-14T02:21:57;5.35;;;4.47;;
54145;SDS011;65909;49.422;7.738;2023-06-14T02:24:22;5.45;;;4.25;;
54145;SDS011;65909;49.422;7.738;2023-06-14T02:26:48;4.80;;;4.30;;
54145;SDS011;65909;49.422;7.738;2023-06-14T02:29:14;6.15;;;4.35;;
54145;SDS011;65909;49.422;7.738;2023-06-14T02:31:40;6.70;;;4.47;;
54145;SDS011;65909;49.422;7.738;2023-06-14T02:34:05;6.25;;;5.00;;
54145;SDS011;65909;49.422;7.738;2023-06-14T02:36:33;4.95;;;4.28;;
54145;SDS011;65909;49.422;7.738;2023-06-14T02:38:59;5.95;;;4.30;;
54145;SDS011;65909;49.422;7.738;2023-06-14T02:41:25;5.72;;;4.30;;
54145;SDS011;65909;49.422;7.738;2023-06-14T02:43:51;7.45;;;4.85;;
54145;SDS011;65909;49.422;7.738;2023-06-14T02:46:16;6.65;;;4.40;;
54145;SDS011;65909;49.422;7.738;2023-06-14T02:48:42;5.18;;;4.35;;
54145;SDS011;65909;49.422;7.738;2023-06-14T02:51:08;6.78;;;4.28;;
54145;SDS011;65909;49.422;7.738;2023-06-14T02:53:34;6.75;;;4.32;;
54145;SDS011;65909;49.422;7.738;2023-06-14T02:56:00;6.05;;;4.55;;
54145;SDS011;65909;49.422;7.738;2023-06-14T02:58:26;6.50;;;4.20;;
54145;SDS011;65909;49.422;7.738;2023-06-14T03:00:52;6.60;;;5.00;;
54145;SDS011;65909;49.422;7.738;2023-06-14T03:03:20;7.25;;;4.43;;
54145;SDS011;65909;49.422;7.738;2023-06-14T03:05:47;8.38;;;4.55;;
54145;SDS011;65909;49.422;7.738;2023-06-14T03:08:14;6.32;;;3.83;;
54145;SDS011;65909;49.422;7.738;2023-06-14T03:10:50;6.00;;;4.60;;
54145;SDS011;65909;49.422;7.738;2023-06-14T03:13:16;4.43;;;3.88;;
54145;SDS011;65909;49.422;7.738;2023-06-14T03:15:42;5.72;;;4.28;;
54145;SDS011;65909;49.422;7.738;2023-06-14T03:18:08;6.53;;;4.03;;
54145;SDS011;65909;49.422;7.738;2023-06-14T03:20:34;4.63;;;3.95;;
54145;SDS011;65909;49.422;7.738;2023-06-14T03:23:01;6.68;;;4.05;;
54145;SDS011;65909;49.422;7.738;2023-06-14T03:25:27;5.60;;;4.45;;
54145;SDS011;65909;49.422;7.738;2023-06-14T03:27:56;7.55;;;4.07;;
54145;SDS011;65909;49.422;7.738;2023-06-14T03:30:22;6.05;;;4.80;;
54145;SDS011;65909;49.422;7.738;2023-06-14T03:32:47;7.07;;;4.97;;
54145;SDS011;65909;49.422;7.738;2023-06-14T03:35:12;5.82;;;3.85;;
54145;SDS011;65909;49.422;7.738;2023-06-14T03:37:42;5.25;;;3.40;;
54145;SDS011;65909;49.422;7.738;2023-06-14T03:40:09;5.50;;;3.72;;
54145;SDS011;65909;49.422;7.738;2023-06-14T03:42:34;5.00;;;3.47;;
54145;SDS011;65909;49.422;7.738;2023-06-14T03:45:00;6.53;;;4.32;;
54145;SDS011;65909;49.422;7.738;2023-06-14T03:47:25;5.78;;;3.65;;
54145;SDS011;65909;49.422;7.738;2023-06-14T03:49:52;5.85;;;3.90;;
54145;SDS011;65909;49.422;7.738;2023-06-14T03:52:17;7.68;;;3.83;;
54145;SDS011;65909;49.422;7.738;2023-06-14T03:54:42;5.63;;;3.92;;
54145;SDS011;65909;49.422;7.738;2023-06-14T03:57:09;5.32;;;4.30;;
54145;SDS011;65909;49.422;7.738;2023-06-14T03:59:35;8.30;;;4.28;;
54145;SDS011;65909;49.422;7.738;2023-06-14T04:02:01;5.30;;;3.70;;
54145;SDS011;65909;49.422;7.738;2023-06-14T04:04:27;5.10;;;3.80;;
54145;SDS011;65909;49.422;7.738;2023-06-14T04:06:57;4.90;;;3.80;;
54145;SDS011;65909;49.422;7.738;2023-06-14T04:09:23;4.80;;;3.90;;
54145;SDS011;65909;49.422;7.738;2023-06-14T04:11:50;4.45;;;3.60;;
54145;SDS011;65909;49.422;7.738;2023-06-14T04:14:17;4.78;;;3.80;;
54145;SDS011;65909;49.422;7.738;2023-06-14T04:16:43;5.43;;;3.53;;
54145;SDS011;65909;49.422;7.738;2023-06-14T04:19:09;5.25;;;4.05;;
54145;SDS011;65909;49.422;7.738;2023-06-14T04:21:34;7.07;;;4.18;;
54145;SDS011;65909;49.422;7.738;2023-06-14T04:24:00;7.22;;;4.28;;
54145;SDS011;65909;49.422;7.738;2023-06-14T04:26:27;7.28;;;3.83;;
54145;SDS011;65909;49.422;7.738;2023-06-14T04:28:58;6.25;;;3.90;;
54145;SDS011;65909;49.422;7.738;2023-06-14T04:31:26;6.55;;;4.00;;
54145;SDS011;65909;49.422;7.738;2023-06-14T04:33:54;4.50;;;3.55;;
54145;SDS011;65909;49.422;7.738;2023-06-14T04:36:19;7.32;;;3.85;;
54145;SDS011;65909;49.422;7.738;2023-06-14T04:38:45;6.30;;;3.83;;
54145;SDS011;65909;49.422;7.738;2023-06-14T04:41:11;8.02;;;3.80;;
54145;SDS011;65909;49.422;7.738;2023-06-14T04:43:37;5.45;;;3.97;;
54145;SDS011;65909;49.422;7.738;2023-06-14T04:46:06;9.20;;;4.25;;
54145;SDS011;65909;49.422;7.738;2023-06-14T04:48:38;5.63;;;3.95;;
54145;SDS011;65909;49.422;7.738;2023-06-14T04:51:06;7.38;;;3.60;;
54145;SDS011;65909;49.422;7.738;2023-06-14T04:53:34;9.98;;;3.88;;
54145;SDS011;65909;49.422;7.738;2023-06-14T04:56:00;4.88;;;3.55;;
54145;SDS011;65909;49.422;7.738;2023-06-14T04:58:26;6.65;;;3.55;;
54145;SDS011;65909;49.422;7.738;2023-06-14T05:00:53;6.07;;;3.95;;
54145;SDS011;65909;49.422;7.738;2023-06-14T05:03:19;7.18;;;3.72;;
54145;SDS011;65909;49.422;7.738;2023-06-14T05:05:46;6.85;;;3.45;;
54145;SDS011;65909;49.422;7.738;2023-06-14T05:08:11;7.68;;;3.88;;
54145;SDS011;65909;49.422;7.738;2023-06-14T05:10:36;8.13;;;4.57;;
54145;SDS011;65909;49.422;7.738;2023-06-14T05:13:02;7.43;;;3.83;;
54145;SDS011;65909;49.422;7.738;2023-06-14T05:15:28;5.68;;;3.90;;
54145;SDS011;65909;49.422;7.738;2023-06-14T05:17:53;6.00;;;3.83;;
54145;SDS011;65909;49.422;7.738;2023-06-14T05:20:23;4.45;;;3.35;;
54145;SDS011;65909;49.422;7.738;2023-06-14T05:22:50;6.80;;;3.67;;
54145;SDS011;65909;49.422;7.738;2023-06-14T05:25:18;4.32;;;3.35;;
54145;SDS011;65909;49.422;7.738;2023-06-14T05:27:44;7.72;;;3.78;;
54145;SDS011;65909;49.422;7.738;2023-06-14T05:30:09;7.90;;;3.70;;
54145;SDS011;65909;49.422;7.738;2023-06-14T05:32:35;5.15;;;3.53;;
54145;SDS011;65909;49.422;7.738;2023-06-14T05:35:01;8.27;;;4.53;;
54145;SDS011;65909;49.422;7.738;2023-06-14T05:37:26;6.75;;;3.55;;
54145;SDS011;65909;49.422;7.738;2023-06-14T05:39:51;5.90;;;3.60;;
54145;SDS011;65909;49.422;7.738;2023-06-14T05:42:17;6.72;;;3.63;;
54145;SDS011;65909;49.422;7.738;2023-06-14T05:44:42;8.68;;;3.15;;
54145;SDS011;65909;49.422;7.738;2023-06-14T05:47:07;5.93;;;3.50;;
54145;SDS011;65909;49.422;7.738;2023-06-14T05:49:33;6.70;;;3.88;;
54145;SDS011;65909;49.422;7.738;2023-06-14T05:51:58;7.43;;;3.75;;
54145;SDS011;65909;49.422;7.738;2023-06-14T05:54:23;5.70;;;3.40;;
54145;SDS011;65909;49.422;7.738;2023-06-14T05:56:49;5.93;;;3.58;;
54145;SDS011;65909;49.422;7.738;2023-06-14T05:59:14;9.05;;;3.90;;
54145;SDS011;65909;49.422;7.738;2023-06-14T06:01:40;6.03;;;3.20;;
54145;SDS011;65909;49.422;7.738;2023-06-14T06:04:07;5.82;;;3.40;;
54145;SDS011;65909;49.422;7.738;2023-06-14T06:06:32;5.13;;;3.35;;
54145;SDS011;65909;49.422;7.738;2023-06-14T06:08:58;5.50;;;3.65;;
54145;SDS011;65909;49.422;7.738;2023-06-14T06:11:23;4.55;;;3.38;;
54145;SDS011;65909;49.422;7.738;2023-06-14T06:13:49;4.78;;;3.35;;
54145;SDS011;65909;49.422;7.738;2023-06-14T06:16:14;5.60;;;3.00;;
54145;SDS011;65909;49.422;7.738;2023-06-14T06:18:40;4.50;;;3.45;;
54145;SDS011;65909;49.422;7.738;2023-06-14T06:21:05;7.78;;;3.42;;
54145;SDS011;65909;49.422;7.738;2023-06-14T06:23:31;7.03;;;3.20;;
54145;SDS011;65909;49.422;7.738;2023-06-14T06:25:56;6.60;;;2.92;;
54145;SDS011;65909;49.422;7.738;2023-06-14T06:28:21;3.97;;;3.17;;
54145;SDS011;65909;49.422;7.738;2023-06-14T06:30:47;3.95;;;2.80;;
54145;SDS011;65909;49.422;7.738;2023-06-14T06:33:12;6.28;;;2.70;;
54145;SDS011;65909;49.422;7.738;2023-06-14T06:35:39;4.22;;;3.25;;
54145;SDS011;65909;49.422;7.738;2023-06-14T06:38:04;4.30;;;2.97;;
54145;SDS011;65909;49.422;7.738;2023-06-14T06:40:30;2.85;;;2.55;;
54145;SDS011;65909;49.422;7.738;2023-06-14T06:42:55;5.57;;;3.05;;
54145;SDS011;65909;49.422;7.738;2023-06-14T06:45:21;5.13;;;2.63;;
54145;SDS011;65909;49.422;7.738;2023-06-14T06:47:48;4.40;;;2.72;;
54145;SDS011;65909;49.422;7.738;2023-06-14T06:50:13;3.40;;;2.78;;
54145;SDS011;65909;49.422;7.738;2023-06-14T06:52:39;4.05;;;2.60;;
54145;SDS011;65909;49.422;7.738;2023-06-14T06:55:05;8.13;;;2.80;;
54145;SDS011;65909;49.422;7.738;2023-06-14T06:57:30;2.58;;;2.10;;
54145;SDS011;65909;49.422;7.738;2023-06-14T06:59:56;3.95;;;2.30;;
54145;SDS011;65909;49.422;7.738;2023-06-14T07:02:22;3.38;;;2.15;;
54145;SDS011;65909;49.422;7.738;2023-06-14T07:04:47;5.78;;;2.10;;
54145;SDS011;65909;49.422;7.738;2023-06-14T07:07:13;4.30;;;2.40;;
54145;SDS011;65909;49.422;7.738;2023-06-14T07:09:38;4.38;;;2.10;;
54145;SDS011;65909;49.422;7.738;2023-06-14T07:12:04;4.22;;;2.10;;
54145;SDS011;65909;49.422;7.738;2023-06-14T07:14:29;2.75;;;2.00;;
54145;SDS011;65909;49.422;7.738;2023-06-14T07:16:55;3.08;;;1.80;;
54145;SDS011;65909;49.422;7.738;2023-06-14T07:19:20;5.55;;;2.13;;
54145;SDS011;65909;49.422;7.738;2023-06-14T07:21:46;4.38;;;1.67;;
54145;SDS011;65909;49.422;7.738;2023-06-14T07:24:11;2.13;;;1.75;;
54145;SDS011;65909;49.422;7.738;2023-06-14T07:26:37;2.70;;;1.60;;
54145;SDS011;65909;49.422;7.738;2023-06-14T07:29:02;2.60;;;1.70;;
54145;SDS011;65909;49.422;7.738;2023-06-14T07:31:28;3.17;;;1.63;;
54145;SDS011;65909;49.422;7.738;2023-06-14T07:33:53;2.85;;;1.50;;
54145;SDS011;65909;49.422;7.738;2023-06-14T07:36:18;2.38;;;1.80;;
54145;SDS011;65909;49.422;7.738;2023-06-14T07:38:44;2.42;;;1.73;;
54145;SDS011;65909;49.422;7.738;2023-06-14T07:41:10;3.00;;;1.67;;
54145;SDS011;65909;49.422;7.738;2023-06-14T07:43:36;2.13;;;1.50;;
54145;SDS011;65909;49.422;7.738;2023-06-14T07:46:01;2.45;;;1.70;;
54145;SDS011;65909;49.422;7.738;2023-06-14T07:48:27;2.45;;;1.52;;
54145;SDS011;65909;49.422;7.738;2023-06-14T07:50:52;2.05;;;1.45;;
54145;SDS011;65909;49.422;7.738;2023-06-14T07:53:18;3.35;;;1.58;;
54145;SDS011;65909;49.422;7.738;2023-06-14T07:55:43;1.73;;;1.40;;
54145;SDS011;65909;49.422;7.738;2023-06-14T07:58:09;2.75;;;1.23;;
54145;SDS011;65909;49.422;7.738;2023-06-14T08:00:35;2.17;;;1.45;;
54145;SDS011;65909;49.422;7.738;2023-06-14T08:03:01;2.80;;;1.38;;
54145;SDS011;65909;49.422;7.738;2023-06-14T08:05:27;2.88;;;1.13;;
54145;SDS011;65909;49.422;7.738;2023-06-14T08:07:53;2.25;;;1.20;;
54145;SDS011;65909;49.422;7.738;2023-06-14T08:10:20;3.70;;;1.30;;
54145;SDS011;65909;49.422;7.738;2023-06-14T08:12:46;2.33;;;1.40;;
54145;SDS011;65909;49.422;7.738;2023-06-14T08:15:11;1.58;;;1.23;;
54145;SDS011;65909;49.422;7.738;2023-06-14T08:17:37;1.20;;;1.05;;
54145;SDS011;65909;49.422;7.738;2023-06-14T08:20:03;2.55;;;1.02;;
54145;SDS011;65909;49.422;7.738;2023-06-14T08:22:30;1.08;;;0.98;;
54145;SDS011;65909;49.422;7.738;2023-06-14T08:24:58;1.65;;;1.25;;
54145;SDS011;65909;49.422;7.738;2023-06-14T08:27:24;3.28;;;1.20;;
54145;SDS011;65909;49.422;7.738;2023-06-14T08:29:50;1.20;;;1.08;;
54145;SDS011;65909;49.422;7.738;2023-06-14T08:32:15;1.83;;;1.13;;
54145;SDS011;65909;49.422;7.738;2023-06-14T08:34:40;2.03;;;1.30;;
54145;SDS011;65909;49.422;7.738;2023-06-14T08:37:06;2.58;;;1.20;;
54145;SDS011;65909;49.422;7.738;2023-06-14T08:39:32;2.25;;;1.30;;
54145;SDS011;65909;49.422;7.738;2023-06-14T08:41:58;2.22;;;1.48;;
54145;SDS011;65909;49.422;7.738;2023-06-14T08:44:25;2.58;;;1.38;;
54145;SDS011;65909;49.422;7.738;2023-06-14T08:46:50;3.67;;;1.75;;
54145;SDS011;65909;49.422;7.738;2023-06-14T08:49:17;3.30;;;1.40;;
54145;SDS011;65909;49.422;7.738;2023-06-14T08:51:43;4.10;;;1.40;;
54145;SDS011;65909;49.422;7.738;2023-06-14T08:54:09;1.52;;;1.30;;
54145;SDS011;65909;49.422;7.738;2023-06-14T08:56:37;2.40;;;1.15;;
54145;SDS011;65909;49.422;7.738;2023-06-14T08:59:06;2.58;;;1.10;;
54145;SDS011;65909;49.422;7.738;2023-06-14T09:01:33;1.30;;;1.17;;
54145;SDS011;65909;49.422;7.738;2023-06-14T09:04:00;2.10;;;1.20;;
54145;SDS011;65909;49.422;7.738;2023-06-14T09:06:27;2.03;;;1.48;;
54145;SDS011;65909;49.422;7.738;2023-06-14T09:08:53;4.13;;;1.38;;
54145;SDS011;65909;49.422;7.738;2023-06-14T09:11:21;1.65;;;1.17;;
54145;SDS011;65909;49.422;7.738;2023-06-14T09:13:46;1.40;;;1.27;;
54145;SDS011;65909;49.422;7.738;2023-06-14T09:16:12;1.40;;;1.20;;
54145;SDS011;65909;49.422;7.738;2023-06-14T09:18:38;1.77;;;1.60;;
54145;SDS011;65909;49.422;7.738;2023-06-14T09:21:09;2.47;;;1.60;;
54145;SDS011;65909;49.422;7.738;2023-06-14T09:23:39;3.60;;;1.30;;
54145;SDS011;65909;49.422;7.738;2023-06-14T09:26:09;1.77;;;1.30;;
54145;SDS011;65909;49.422;7.738;2023-06-14T09:28:42;2.43;;;1.30;;
54145;SDS011;65909;49.422;7.738;2023-06-14T09:31:08;2.60;;;1.20;;
54145;SDS011;65909;49.422;7.738;2023-06-14T09:33:34;1.42;;;1.20;;
54145;SDS011;65909;49.422;7.738;2023-06-14T09:36:04;2.40;;;1.30;;
54145;SDS011;65909;49.422;7.738;2023-06-14T09:38:34;2.33;;;1.30;;
54145;SDS011;65909;49.422;7.738;2023-06-14T09:41:00;5.15;;;1.30;;
54145;SDS011;65909;49.422;7.738;2023-06-14T09:43:28;3.35;;;1.30;;
54145;SDS011;65909;49.422;7.738;2023-06-14T09:45:54;1.83;;;1.30;;
54145;SDS011;65909;49.422;7.738;2023-06-14T09:48:20;1.35;;;1.25;;
54145;SDS011;65909;49.422;7.738;2023-06-14T09:50:45;2.70;;;1.50;;
54145;SDS011;65909;49.422;7.738;2023-06-14T09:53:12;2.70;;;1.20;;
54145;SDS011;65909;49.422;7.738;2023-06-14T09:55:40;2.92;;;1.30;;
54145;SDS011;65909;49.422;7.738;2023-06-14T09:58:06;2.47;;;1.42;;
54145;SDS011;65909;49.422;7.738;2023-06-14T10:00:32;2.30;;;1.30;;
54145;SDS011;65909;49.422;7.738;2023-06-14T10:03:00;3.22;;;1.65;;
54145;SDS011;65909;49.422;7.738;2023-06-14T10:05:31;2.50;;;1.50;;
54145;SDS011;65909;49.422;7.738;2023-06-14T10:08:06;1.52;;;1.30;;
54145;SDS011;65909;49.422;7.738;2023-06-14T10:10:33;3.22;;;1.50;;
54145;SDS011;65909;49.422;7.738;2023-06-14T10:13:04;2.08;;;1.58;;
54145;SDS011;65909;49.422;7.738;2023-06-14T10:20:52;2.58;;;1.67;;
54145;SDS011;65909;49.422;7.738;2023-06-14T10:23:19;2.72;;;1.63;;
54145;SDS011;65909;49.422;7.738;2023-06-14T10:25:50;2.25;;;1.80;;
54145;SDS011;65909;49.422;7.738;2023-06-14T10:28:21;2.30;;;1.45;;
54145;SDS011;65909;49.422;7.738;2023-06-14T10:31:03;3.13;;;2.00;;
54145;SDS011;65909;49.422;7.738;2023-06-14T10:33:33;4.75;;;1.80;;
54145;SDS011;65909;49.422;7.738;2023-06-14T10:36:08;4.78;;;1.80;;
54145;SDS011;65909;49.422;7.738;2023-06-14T10:38:58;4.43;;;1.75;;
54145;SDS011;65909;49.422;7.738;2023-06-14T10:41:27;4.60;;;2.08;;
54145;SDS011;65909;49.422;7.738;2023-06-14T10:46:37;4.00;;;1.83;;
54145;SDS011;65909;49.422;7.738;2023-06-14T10:49:03;1.75;;;1.58;;
54145;SDS011;65909;49.422;7.738;2023-06-14T10:51:29;1.60;;;1.48;;
54145;SDS011;65909;49.422;7.738;2023-06-14T10:54:11;3.20;;;1.75;;
54145;SDS011;65909;49.422;7.738;2023-06-14T10:56:37;1.73;;;1.35;;
54145;SDS011;65909;49.422;7.738;2023-06-14T10:59:02;4.95;;;1.70;;
54145;SDS011;65909;49.422;7.738;2023-06-14T11:01:38;1.85;;;1.50;;
54145;SDS011;65909;49.422;7.738;2023-06-14T11:04:10;2.25;;;1.42;;
54145;SDS011;65909;49.422;7.738;2023-06-14T11:06:45;3.35;;;1.48;;
54145;SDS011;65909;49.422;7.738;2023-06-14T11:12:24;1.75;;;1.40;;
54145;SDS011;65909;49.422;7.738;2023-06-14T11:14:52;3.92;;;1.40;;
54145;SDS011;65909;49.422;7.738;2023-06-14T11:17:18;1.58;;;1.27;;
54145;SDS011;65909;49.422;7.738;2023-06-14T11:19:43;2.10;;;1.30;;
54145;SDS011;65909;49.422;7.738;2023-06-14T11:22:09;1.63;;;1.45;;
54145;SDS011;65909;49.422;7.738;2023-06-14T11:24:35;1.60;;;1.40;;
54145;SDS011;65909;49.422;7.738;2023-06-14T11:27:00;1.52;;;1.20;;
54145;SDS011;65909;49.422;7.738;2023-06-14T11:29:25;1.33;;;1.20;;
54145;SDS011;65909;49.422;7.738;2023-06-14T11:31:54;2.25;;;1.40;;
54145;SDS011;65909;49.422;7.738;2023-06-14T11:34:19;1.75;;;1.40;;
54145;SDS011;65909;49.422;7.738;2023-06-14T11:36:45;2.13;;;1.60;;
54145;SDS011;65909;49.422;7.738;2023-06-14T11:39:12;8.75;;;1.88;;
54145;SDS011;65909;49.422;7.738;2023-06-14T11:41:39;2.17;;;1.60;;
54145;SDS011;65909;49.422;7.738;2023-06-14T11:44:07;2.10;;;1.52;;
54145;SDS011;65909;49.422;7.738;2023-06-14T11:46:33;1.63;;;1.50;;
54145;SDS011;65909;49.422;7.738;2023-06-14T11:48:58;5.53;;;1.52;;
54145;SDS011;65909;49.422;7.738;2023-06-14T11:51:27;1.60;;;1.20;;
54145;SDS011;65909;49.422;7.738;2023-06-14T11:53:53;2.33;;;1.67;;
54145;SDS011;65909;49.422;7.738;2023-06-14T11:56:19;2.97;;;1.63;;
54145;SDS011;65909;49.422;7.738;2023-06-14T11:58:44;3.17;;;1.60;;
54145;SDS011;65909;49.422;7.738;2023-06-14T12:01:13;2.08;;;1.88;;
54145;SDS011;65909;49.422;7.738;2023-06-14T12:03:46;1.40;;;1.30;;
54145;SDS011;65909;49.422;7.738;2023-06-14T12:06:13;2.63;;;1.92;;
54145;SDS011;65909;49.422;7.738;2023-06-14T12:08:39;2.50;;;1.55;;
54145;SDS011;65909;49.422;7.738;2023-06-14T12:11:05;4.93;;;1.90;;
54145;SDS011;65909;49.422;7.738;2023-06-14T12:13:33;3.05;;;2.10;;
54145;SDS011;65909;49.422;7.738;2023-06-14T12:15:59;2.38;;;1.73;;
54145;SDS011;65909;49.422;7.738;2023-06-14T12:18:31;2.10;;;1.67;;
54145;SDS011;65909;49.422;7.738;2023-06-14T12:21:01;2.53;;;1.70;;
54145;SDS011;65909;49.422;7.738;2023-06-14T12:23:42;2.40;;;1.80;;
54145;SDS011;65909;49.422;7.738;2023-06-14T12:26:09;4.30;;;1.90;;
54145;SDS011;65909;49.422;7.738;2023-06-14T12:28:37;1.95;;;1.67;;
54145;SDS011;65909;49.422;7.738;2023-06-14T12:31:02;3.17;;;1.73;;
54145;SDS011;65909;49.422;7.738;2023-06-14T12:33:28;4.65;;;1.75;;
54145;SDS011;65909;49.422;7.738;2023-06-14T12:35:54;2.53;;;1.75;;
54145;SDS011;65909;49.422;7.738;2023-06-14T12:38:21;2.20;;;1.60;;
54145;SDS011;65909;49.422;7.738;2023-06-14T12:40:47;1.90;;;1.45;;
54145;SDS011;65909;49.422;7.738;2023-06-14T12:43:12;2.40;;;1.50;;
54145;SDS011;65909;49.422;7.738;2023-06-14T12:45:38;3.80;;;1.67;;
54145;SDS011;65909;49.422;7.738;2023-06-14T12:48:03;2.70;;;1.95;;
54145;SDS011;65909;49.422;7.738;2023-06-14T12:50:29;2.58;;;1.70;;
54145;SDS011;65909;49.422;7.738;2023-06-14T12:52:55;3.55;;;1.50;;
54145;SDS011;65909;49.422;7.738;2023-06-14T12:55:20;2.45;;;1.65;;
54145;SDS011;65909;49.422;7.738;2023-06-14T12:57:46;3.38;;;1.20;;
54145;SDS011;65909;49.422;7.738;2023-06-14T13:00:11;1.90;;;1.40;;
54145;SDS011;65909;49.422;7.738;2023-06-14T13:02:38;2.80;;;1.38;;
54145;SDS011;65909;49.422;7.738;2023-06-14T13:05:03;3.10;;;1.35;;
54145;SDS011;65909;49.422;7.738;2023-06-14T13:07:29;1.75;;;1.42;;
54145;SDS011;65909;49.422;7.738;2023-06-14T13:09:54;2.60;;;1.60;;
54145;SDS011;65909;49.422;7.738;2023-06-14T13:12:20;2.22;;;1.63;;
54145;SDS011;65909;49.422;7.738;2023-06-14T13:14:45;2.15;;;1.73;;
54145;SDS011;65909;49.422;7.738;2023-06-14T13:17:11;1.92;;;1.52;;
54145;SDS011;65909;49.422;7.738;2023-06-14T13:19:36;2.60;;;1.60;;
54145;SDS011;65909;49.422;7.738;2023-06-14T13:22:02;1.98;;;1.45;;
54145;SDS011;65909;49.422;7.738;2023-06-14T13:24:27;2.15;;;1.65;;
54145;SDS011;65909;49.422;7.738;2023-06-14T13:26:54;1.98;;;1.67;;
54145;SDS011;65909;49.422;7.738;2023-06-14T13:29:20;2.20;;;1.52;;
54145;SDS011;65909;49.422;7.738;2023-06-14T13:31:46;1.98;;;1.55;;
54145;SDS011;65909;49.422;7.738;2023-06-14T13:34:11;3.42;;;1.55;;
54145;SDS011;65909;49.422;7.738;2023-06-14T13:36:36;2.40;;;1.88;;
54145;SDS011;65909;49.422;7.738;2023-06-14T13:39:02;2.97;;;1.60;;
54145;SDS011;65909;49.422;7.738;2023-06-14T13:41:28;4.25;;;1.75;;
54145;SDS011;65909;49.422;7.738;2023-06-14T13:43:58;2.75;;;1.70;;
54145;SDS011;65909;49.422;7.738;2023-06-14T13:46:24;2.33;;;1.63;;
54145;SDS011;65909;49.422;7.738;2023-06-14T13:48:50;2.33;;;1.50;;
54145;SDS011;65909;49.422;7.738;2023-06-14T13:51:17;2.75;;;2.03;;
54145;SDS011;65909;49.422;7.738;2023-06-14T13:53:45;3.65;;;1.67;;
54145;SDS011;65909;49.422;7.738;2023-06-14T13:56:14;2.22;;;1.77;;
54145;SDS011;65909;49.422;7.738;2023-06-14T13:58:39;3.53;;;1.80;;
54145;SDS011;65909;49.422;7.738;2023-06-14T14:01:05;5.13;;;1.92;;
54145;SDS011;65909;49.422;7.738;2023-06-14T14:03:30;4.38;;;1.70;;
54145;SDS011;65909;49.422;7.738;2023-06-14T14:05:56;1.92;;;1.63;;
54145;SDS011;65909;49.422;7.738;2023-06-14T14:08:22;3.65;;;1.80;;
54145;SDS011;65909;49.422;7.738;2023-06-14T14:10:47;4.70;;;2.10;;
54145;SDS011;65909;49.422;7.738;2023-06-14T14:13:13;4.18;;;1.80;;
54145;SDS011;65909;49.422;7.738;2023-06-14T14:15:39;2.03;;;1.70;;
54145;SDS011;65909;49.422;7.738;2023-06-14T14:18:04;2.03;;;1.60;;
54145;SDS011;65909;49.422;7.738;2023-06-14T14:20:30;3.92;;;1.65;;
54145;SDS011;65909;49.422;7.738;2023-06-14T14:22:56;1.90;;;1.35;;
54145;SDS011;65909;49.422;7.738;2023-06-14T14:25:21;1.92;;;1.50;;
54145;SDS011;65909;49.422;7.738;2023-06-14T14:27:47;4.95;;;1.85;;
54145;SDS011;65909;49.422;7.738;2023-06-14T14:30:12;1.80;;;1.50;;
54145;SDS011;65909;49.422;7.738;2023-06-14T14:32:39;2.10;;;1.83;;
54145;SDS011;65909;49.422;7.738;2023-06-14T14:35:05;2.25;;;1.63;;
54145;SDS011;65909;49.422;7.738;2023-06-14T14:37:31;4.45;;;1.65;;
54145;SDS011;65909;49.422;7.738;2023-06-14T14:39:56;2.42;;;1.70;;
54145;SDS011;65909;49.422;7.738;2023-06-14T14:42:22;2.30;;;1.80;;
54145;SDS011;65909;49.422;7.738;2023-06-14T14:44:47;2.33;;;1.42;;
54145;SDS011;65909;49.422;7.738;2023-06-14T14:47:12;1.88;;;1.58;;
54145;SDS011;65909;49.422;7.738;2023-06-14T14:49:38;3.08;;;1.50;;
54145;SDS011;65909;49.422;7.738;2023-06-14T14:52:03;2.08;;;1.60;;
54145;SDS011;65909;49.422;7.738;2023-06-14T14:54:29;5.72;;;2.30;;
54145;SDS011;65909;49.422;7.738;2023-06-14T14:56:54;2.75;;;1.88;;
54145;SDS011;65909;49.422;7.738;2023-06-14T14:59:20;3.30;;;1.90;;